Aviation Digital Data Service (ADDS)

Output produced by METARs form (0347 UTC 26 June 2019)
found at http://www.aviationweather.gov/metar/data/
 
METAR text: VAAU 260300Z 00000 6000 FEW020 SCT025 BKN100 27/23 Q1009 NOSIG
Conditions at: VAAU (AURANGABAD AIRPO, IN) observed 0300 UTC 26 June 2019
Temperature: 27.0°C (81°F)
Dewpoint: 23.0°C (73°F) [RH = 79%]
Pressure (altimeter): 29.79 inches Hg (1009.0 mb)
Winds: calm
Visibility: 4 miles ( 6 km)
Ceiling: 10000 feet AGL
Clouds: few clouds at 2000 feet AGL
scattered clouds at 2500 feet AGL
broken clouds at 10000 feet AGL
Weather: no significant weather observed at this time

METAR text: VAAU 260200Z 28003KT 6000 FEW020 SCT100 26/23 Q1008 NOSIG
Conditions at: VAAU (AURANGABAD AIRPO, IN) observed 0200 UTC 26 June 2019
Temperature: 26.0°C (79°F)
Dewpoint: 23.0°C (73°F) [RH = 84%]
Pressure (altimeter): 29.76 inches Hg (1008.0 mb)
Winds: from the W (280 degrees) at 3 MPH (3 knots; 1.5 m/s)
Visibility: 4 miles ( 6 km)
Ceiling: at least 12,000 feet AGL
Clouds: few clouds at 2000 feet AGL
scattered clouds at 10000 feet AGL
Weather: no significant weather observed at this time

METAR text: VAAU 260100Z 29002KT 6000 FEW020 SCT100 25/23 Q1008 NOSIG
Conditions at: VAAU (AURANGABAD AIRPO, IN) observed 0100 UTC 26 June 2019
Temperature: 25.0°C (77°F)
Dewpoint: 23.0°C (73°F) [RH = 89%]
Pressure (altimeter): 29.76 inches Hg (1008.0 mb)
Winds: from the WNW (290 degrees) at 2 MPH (2 knots; 1.0 m/s)
Visibility: 4 miles ( 6 km)
Ceiling: at least 12,000 feet AGL
Clouds: few clouds at 2000 feet AGL
scattered clouds at 10000 feet AGL
Weather: no significant weather observed at this time

METAR text: VAAU 260000Z 25001KT 6000 FEW020 SCT100 25/23 Q1007 NOSIG
Conditions at: VAAU (AURANGABAD AIRPO, IN) observed 0000 UTC 26 June 2019
Temperature: 25.0°C (77°F)
Dewpoint: 23.0°C (73°F) [RH = 89%]
Pressure (altimeter): 29.73 inches Hg (1007.0 mb)
Winds: from the WSW (250 degrees) at 1 MPH (1 knots; 0.5 m/s)
Visibility: 4 miles ( 6 km)
Ceiling: at least 12,000 feet AGL
Clouds: few clouds at 2000 feet AGL
scattered clouds at 10000 feet AGL
Weather: no significant weather observed at this time

METAR text: VAAU 252100Z 25002KT 6000 SCT020 26/24 Q1008 NOSIG
Conditions at: VAAU (AURANGABAD AIRPO, IN) observed 2100 UTC 25 June 2019
Temperature: 26.0°C (79°F)
Dewpoint: 24.0°C (75°F) [RH = 89%]
Pressure (altimeter): 29.76 inches Hg (1008.0 mb)
Winds: from the WSW (250 degrees) at 2 MPH (2 knots; 1.0 m/s)
Visibility: 4 miles ( 6 km)
Ceiling: at least 12,000 feet AGL
Clouds: scattered clouds at 2000 feet AGL
Weather: no significant weather observed at this time

METAR text: VAAU 251800Z 29002KT 6000 SCT026 27/23 Q1009 NOSIG
Conditions at: VAAU (AURANGABAD AIRPO, IN) observed 1800 UTC 25 June 2019
Temperature: 27.0°C (81°F)
Dewpoint: 23.0°C (73°F) [RH = 79%]
Pressure (altimeter): 29.79 inches Hg (1009.0 mb)
Winds: from the WNW (290 degrees) at 2 MPH (2 knots; 1.0 m/s)
Visibility: 4 miles ( 6 km)
Ceiling: at least 12,000 feet AGL
Clouds: scattered clouds at 2600 feet AGL
Weather: no significant weather observed at this time

METAR text: VAAU 251500Z 27004KT 6000 SCT020 SCT025 FEW030CB 29/23 Q1008 NOSIG
Conditions at: VAAU (AURANGABAD AIRPO, IN) observed 1500 UTC 25 June 2019
Temperature: 29.0°C (84°F)
Dewpoint: 23.0°C (73°F) [RH = 70%]
Pressure (altimeter): 29.76 inches Hg (1008.0 mb)
Winds: from the W (270 degrees) at 5 MPH (4 knots; 2.1 m/s)
Visibility: 4 miles ( 6 km)
Ceiling: at least 12,000 feet AGL
Clouds: scattered clouds at 2000 feet AGL
scattered clouds at 2500 feet AGL
few clouds at 3000 feet AGL
Weather: no significant weather observed at this time

METAR text: VAAU 251400Z 29004KT 6000 SCT020 SCT025 FEW030CB 29/23 Q1007 NOSIG
Conditions at: VAAU (AURANGABAD AIRPO, IN) observed 1400 UTC 25 June 2019
Temperature: 29.0°C (84°F)
Dewpoint: 23.0°C (73°F) [RH = 70%]
Pressure (altimeter): 29.73 inches Hg (1007.0 mb)
Winds: from the WNW (290 degrees) at 5 MPH (4 knots; 2.1 m/s)
Visibility: 4 miles ( 6 km)
Ceiling: at least 12,000 feet AGL
Clouds: scattered clouds at 2000 feet AGL
scattered clouds at 2500 feet AGL
few clouds at 3000 feet AGL
Weather: no significant weather observed at this time

METAR text: VAAU 251200Z 34004KT 6000 FEW020 SCT025 31/25 Q1006 NOSIG
Conditions at: VAAU (AURANGABAD AIRPO, IN) observed 1200 UTC 25 June 2019
Temperature: 31.0°C (88°F)
Dewpoint: 25.0°C (77°F) [RH = 71%]
Pressure (altimeter): 29.70 inches Hg (1006.0 mb)
Winds: from the NNW (340 degrees) at 5 MPH (4 knots; 2.1 m/s)
Visibility: 4 miles ( 6 km)
Ceiling: at least 12,000 feet AGL
Clouds: few clouds at 2000 feet AGL
scattered clouds at 2500 feet AGL
Weather: no significant weather observed at this time

METAR text: VAAU 251100Z 36004KT 6000 ST020 SCT025 BKN100 FEW030CB 29/23 Q1006 NOSIG
Conditions at: VAAU (AURANGABAD AIRPO, IN) observed 1100 UTC 25 June 2019
Temperature: 29.0°C (84°F)
Dewpoint: 23.0°C (73°F) [RH = 70%]
Pressure (altimeter): 29.70 inches Hg (1006.0 mb)
Winds: from the N (360 degrees) at 5 MPH (4 knots; 2.1 m/s)
Visibility: 4 miles ( 6 km)
Ceiling: 10000 feet AGL
Clouds: scattered clouds at 2500 feet AGL
broken clouds at 10000 feet AGL
few clouds at 3000 feet AGL
Weather: no significant weather observed at this time

METAR text: VAAU 251000Z 11004KT 6000 TS SCT020 SCT025 BKN100 FEW030CB 32/24 Q1007 NOSIG
Conditions at: VAAU (AURANGABAD AIRPO, IN) observed 1000 UTC 25 June 2019
Temperature: 32.0°C (90°F)
Dewpoint: 24.0°C (75°F) [RH = 63%]
Pressure (altimeter): 29.73 inches Hg (1007.0 mb)
Winds: from the ESE (110 degrees) at 5 MPH (4 knots; 2.1 m/s)
Visibility: 4 miles ( 6 km)
Ceiling: 10000 feet AGL
Clouds: scattered clouds at 2000 feet AGL
scattered clouds at 2500 feet AGL
broken clouds at 10000 feet AGL
few clouds at 3000 feet AGL
Weather: TS  (thunderstorm)

METAR text: VAAU 250900Z 09004KT 6000 SCT020 SCT025 32/24 Q1007 NOSIG
Conditions at: VAAU (AURANGABAD AIRPO, IN) observed 0900 UTC 25 June 2019
Temperature: 32.0°C (90°F)
Dewpoint: 24.0°C (75°F) [RH = 63%]
Pressure (altimeter): 29.73 inches Hg (1007.0 mb)
Winds: from the E (90 degrees) at 5 MPH (4 knots; 2.1 m/s)
Visibility: 4 miles ( 6 km)
Ceiling: at least 12,000 feet AGL
Clouds: scattered clouds at 2000 feet AGL
scattered clouds at 2500 feet AGL
Weather: no significant weather observed at this time

METAR text: VAAU 250800Z 09001KT 6000 SCT020 SCT025 32/23 Q1007 NOSIG
Conditions at: VAAU (AURANGABAD AIRPO, IN) observed 0800 UTC 25 June 2019
Temperature: 32.0°C (90°F)
Dewpoint: 23.0°C (73°F) [RH = 59%]
Pressure (altimeter): 29.73 inches Hg (1007.0 mb)
Winds: from the E (90 degrees) at 1 MPH (1 knots; 0.5 m/s)
Visibility: 4 miles ( 6 km)
Ceiling: at least 12,000 feet AGL
Clouds: scattered clouds at 2000 feet AGL
scattered clouds at 2500 feet AGL
Weather: no significant weather observed at this time

METAR text: VAAU 250700Z 20002KT 6000 SCT020 SCT025 30/24 Q1008 NOSIG
Conditions at: VAAU (AURANGABAD AIRPO, IN) observed 0700 UTC 25 June 2019
Temperature: 30.0°C (86°F)
Dewpoint: 24.0°C (75°F) [RH = 70%]
Pressure (altimeter): 29.76 inches Hg (1008.0 mb)
Winds: from the SSW (200 degrees) at 2 MPH (2 knots; 1.0 m/s)
Visibility: 4 miles ( 6 km)
Ceiling: at least 12,000 feet AGL
Clouds: scattered clouds at 2000 feet AGL
scattered clouds at 2500 feet AGL
Weather: no significant weather observed at this time

METAR text: VAAU 250600Z 29003KT 5000 DZ SCT020 BKN025 29/23 Q1008 NOSIG
Conditions at: VAAU (AURANGABAD AIRPO, IN) observed 0600 UTC 25 June 2019
Temperature: 29.0°C (84°F)
Dewpoint: 23.0°C (73°F) [RH = 70%]
Pressure (altimeter): 29.76 inches Hg (1008.0 mb)
Winds: from the WNW (290 degrees) at 3 MPH (3 knots; 1.5 m/s)
Visibility: 3 miles ( 5 km)
Ceiling: 2500 feet AGL
Clouds: scattered clouds at 2000 feet AGL
broken clouds at 2500 feet AGL
Weather: DZ  (moderate drizzle)

METAR text: VAAU 250500Z 34003KT 6000 SCT020 SCT025 29/23 Q1009 NOSIG
Conditions at: VAAU (AURANGABAD AIRPO, IN) observed 0500 UTC 25 June 2019
Temperature: 29.0°C (84°F)
Dewpoint: 23.0°C (73°F) [RH = 70%]
Pressure (altimeter): 29.79 inches Hg (1009.0 mb)
Winds: from the NNW (340 degrees) at 3 MPH (3 knots; 1.5 m/s)
Visibility: 4 miles ( 6 km)
Ceiling: at least 12,000 feet AGL
Clouds: scattered clouds at 2000 feet AGL
scattered clouds at 2500 feet AGL
Weather: no significant weather observed at this time

METAR text: VAAU 250300Z 29003KT 6000 NSC 27/24 Q1008 NOSIG
Conditions at: VAAU (AURANGABAD AIRPO, IN) observed 0300 UTC 25 June 2019
Temperature: 27.0°C (81°F)
Dewpoint: 24.0°C (75°F) [RH = 84%]
Pressure (altimeter): 29.76 inches Hg (1008.0 mb)
Winds: from the WNW (290 degrees) at 3 MPH (3 knots; 1.5 m/s)
Visibility: 4 miles ( 6 km)
Ceiling: at least 12,000 feet AGL
Clouds: sky clear below 12,000 feet AGL
Weather: no significant weather observed at this time

METAR text: VAAU 250200Z 28000KT 5000 HZ NSC 26/24 Q1008 NOSIG
Conditions at: VAAU (AURANGABAD AIRPO, IN) observed 0200 UTC 25 June 2019
Temperature: 26.0°C (79°F)
Dewpoint: 24.0°C (75°F) [RH = 89%]
Pressure (altimeter): 29.76 inches Hg (1008.0 mb)
Winds: missing
Visibility: 3 miles ( 5 km)
Ceiling: at least 12,000 feet AGL
Clouds: sky clear below 12,000 feet AGL
Weather: HZ  (haze)

METAR text: VAAU 250100Z 26002KT 5000 HZ SCT020 25/24 Q1008 NOSIG
Conditions at: VAAU (AURANGABAD AIRPO, IN) observed 0100 UTC 25 June 2019
Temperature: 25.0°C (77°F)
Dewpoint: 24.0°C (75°F) [RH = 94%]
Pressure (altimeter): 29.76 inches Hg (1008.0 mb)
Winds: from the W (260 degrees) at 2 MPH (2 knots; 1.0 m/s)
Visibility: 3 miles ( 5 km)
Ceiling: at least 12,000 feet AGL
Clouds: scattered clouds at 2000 feet AGL
Weather: HZ  (haze)

METAR text: VAAU 250000Z 23000KT 5000 HZ SCT020 25/24 Q1007 NOSIG
Conditions at: VAAU (AURANGABAD AIRPO, IN) observed 0000 UTC 25 June 2019
Temperature: 25.0°C (77°F)
Dewpoint: 24.0°C (75°F) [RH = 94%]
Pressure (altimeter): 29.73 inches Hg (1007.0 mb)
Winds: missing
Visibility: 3 miles ( 5 km)
Ceiling: at least 12,000 feet AGL
Clouds: scattered clouds at 2000 feet AGL
Weather: HZ  (haze)

METAR text: VAAU 242100Z 27000KT 5000 HZ SCT020 25/23 Q1007 NOSIG
Conditions at: VAAU (AURANGABAD AIRPO, IN) observed 2100 UTC 24 June 2019
Temperature: 25.0°C (77°F)
Dewpoint: 23.0°C (73°F) [RH = 89%]
Pressure (altimeter): 29.73 inches Hg (1007.0 mb)
Winds: missing
Visibility: 3 miles ( 5 km)
Ceiling: at least 12,000 feet AGL
Clouds: scattered clouds at 2000 feet AGL
Weather: HZ  (haze)

METAR text: VAAU 241800Z 11002KT 4000 DZ BKN020 SCT025 26/24 Q1008 NOSIG
Conditions at: VAAU (AURANGABAD AIRPO, IN) observed 1800 UTC 24 June 2019
Temperature: 26.0°C (79°F)
Dewpoint: 24.0°C (75°F) [RH = 89%]
Pressure (altimeter): 29.76 inches Hg (1008.0 mb)
Winds: from the ESE (110 degrees) at 2 MPH (2 knots; 1.0 m/s)
Visibility: 2.49 miles (4.01 km)
Ceiling: 2000 feet AGL
Clouds: broken clouds at 2000 feet AGL
scattered clouds at 2500 feet AGL
Weather: DZ  (moderate drizzle)

Forecast for: VAAU (AURANGABAD AIRPO, IN)
Text: TAF VAAU 260200Z 2603/2612 24004KT 6000 SCT020
Forecast period: 0300 to 0500 UTC 26 June 2019
Forecast type: FROM: standard forecast or significant change
Winds: from the WSW (240 degrees) at 5 MPH (4 knots; 2.1 m/s)
Visibility: 4 miles (6 km)
Ceiling: at least 12,000 feet AGL
Clouds: scattered clouds at 2000 feet AGL
Weather: no significant weather forecast for this period
Text: BECMG 2605/2607 34004KT SCT020 SCT025 BKN080
Forecast period: 0500 to 1200 UTC 26 June 2019
Forecast type: BECOMING: Conditions expected to become as follows by 0700 UTC 26 June 2019
Winds: from the NNW (340 degrees) at 5 MPH (4 knots; 2.1 m/s)
Visibility: 4 miles (6 km)
Ceiling: 8000 feet AGL
Clouds: scattered clouds at 2000 feet AGL
scattered clouds at 2500 feet AGL
broken clouds at 8000 feet AGL
Weather: no significant weather forecast for this period
Text: TEMPO 2609/2612 2000 SHRA FEW020 SCT025 FEW030CB
Forecast period: 0900 to 1200 UTC 26 June 2019
Forecast type: TEMPORARY: The following changes expected for less than half the time period
Visibility: 1.24 miles (2.00 km)
Ceiling: at least 12,000 feet AGL
Clouds: few clouds at 2000 feet AGL
scattered clouds at 2500 feet AGL
few clouds at 3000 feet AGL
Weather: SHRA  (rain showers)